sensor_id;sensor_type;location;lat;lon;timestamp;P1;durP1;ratioP1;P2;durP2;ratioP2
18166;SDS011;9208;42.688;23.404;2022-09-19T00:03:40;1.60;;;1.50;;
18166;SDS011;9208;42.688;23.404;2022-09-19T00:06:07;1.80;;;1.60;;
18166;SDS011;9208;42.688;23.404;2022-09-19T00:08:35;1.93;;;1.30;;
18166;SDS011;9208;42.688;23.404;2022-09-19T00:11:03;3.23;;;2.80;;
18166;SDS011;9208;42.688;23.404;2022-09-19T00:13:29;3.87;;;2.70;;
18166;SDS011;9208;42.688;23.404;2022-09-19T00:15:56;4.10;;;2.80;;
18166;SDS011;9208;42.688;23.404;2022-09-19T00:18:22;4.90;;;3.00;;
18166;SDS011;9208;42.688;23.404;2022-09-19T00:20:47;2.80;;;2.60;;
18166;SDS011;9208;42.688;23.404;2022-09-19T00:23:16;3.03;;;2.73;;
18166;SDS011;9208;42.688;23.404;2022-09-19T00:26:01;4.17;;;3.00;;
18166;SDS011;9208;42.688;23.404;2022-09-19T00:28:32;4.27;;;2.80;;
18166;SDS011;9208;42.688;23.404;2022-09-19T00:30:58;3.00;;;2.80;;
18166;SDS011;9208;42.688;23.404;2022-09-19T00:33:25;3.00;;;2.73;;
18166;SDS011;9208;42.688;23.404;2022-09-19T00:35:53;3.07;;;2.87;;
18166;SDS011;9208;42.688;23.404;2022-09-19T00:38:20;3.13;;;2.80;;
18166;SDS011;9208;42.688;23.404;2022-09-19T00:40:47;4.50;;;2.87;;
18166;SDS011;9208;42.688;23.404;2022-09-19T00:43:14;2.83;;;2.63;;
18166;SDS011;9208;42.688;23.404;2022-09-19T00:45:42;2.80;;;2.60;;
18166;SDS011;9208;42.688;23.404;2022-09-19T00:48:08;3.00;;;2.70;;
18166;SDS011;9208;42.688;23.404;2022-09-19T00:50:35;3.03;;;2.83;;
18166;SDS011;9208;42.688;23.404;2022-09-19T00:53:12;3.40;;;3.10;;
18166;SDS011;9208;42.688;23.404;2022-09-19T00:55:44;2.80;;;2.60;;
18166;SDS011;9208;42.688;23.404;2022-09-19T01:00:53;3.73;;;3.37;;
18166;SDS011;9208;42.688;23.404;2022-09-19T01:03:18;3.10;;;2.90;;
18166;SDS011;9208;42.688;23.404;2022-09-19T01:05:58;3.77;;;3.33;;
18166;SDS011;9208;42.688;23.404;2022-09-19T01:14:04;3.60;;;3.30;;
18166;SDS011;9208;42.688;23.404;2022-09-19T01:16:40;3.70;;;3.40;;
18166;SDS011;9208;42.688;23.404;2022-09-19T01:25:31;4.30;;;3.07;;
18166;SDS011;9208;42.688;23.404;2022-09-19T01:30:30;3.80;;;3.50;;
18166;SDS011;9208;42.688;23.404;2022-09-19T01:33:05;4.37;;;3.00;;
18166;SDS011;9208;42.688;23.404;2022-09-19T01:35:35;3.20;;;2.90;;
18166;SDS011;9208;42.688;23.404;2022-09-19T01:38:06;5.27;;;3.83;;
18166;SDS011;9208;42.688;23.404;2022-09-19T01:40:35;4.80;;;3.70;;
18166;SDS011;9208;42.688;23.404;2022-09-19T01:43:02;4.40;;;3.87;;
18166;SDS011;9208;42.688;23.404;2022-09-19T01:45:31;4.10;;;3.70;;
18166;SDS011;9208;42.688;23.404;2022-09-19T01:59:22;6.30;;;4.33;;
18166;SDS011;9208;42.688;23.404;2022-09-19T02:05:13;3.33;;;3.07;;
18166;SDS011;9208;42.688;23.404;2022-09-19T02:08:42;3.47;;;2.90;;
18166;SDS011;9208;42.688;23.404;2022-09-19T02:11:05;2.43;;;2.33;;
18166;SDS011;9208;42.688;23.404;2022-09-19T02:13:37;3.60;;;3.10;;
18166;SDS011;9208;42.688;23.404;2022-09-19T02:16:21;4.37;;;3.60;;
18166;SDS011;9208;42.688;23.404;2022-09-19T02:18:54;3.43;;;3.13;;
18166;SDS011;9208;42.688;23.404;2022-09-19T02:21:26;2.80;;;2.60;;
18166;SDS011;9208;42.688;23.404;2022-09-19T02:23:57;4.00;;;2.83;;
18166;SDS011;9208;42.688;23.404;2022-09-19T02:26:30;2.40;;;2.20;;
18166;SDS011;9208;42.688;23.404;2022-09-19T02:28:58;2.70;;;2.50;;
18166;SDS011;9208;42.688;23.404;2022-09-19T02:31:26;2.50;;;2.40;;
18166;SDS011;9208;42.688;23.404;2022-09-19T02:33:53;3.70;;;3.37;;
18166;SDS011;9208;42.688;23.404;2022-09-19T02:41:30;2.70;;;2.50;;
18166;SDS011;9208;42.688;23.404;2022-09-19T02:44:20;2.60;;;2.40;;
18166;SDS011;9208;42.688;23.404;2022-09-19T02:46:59;4.27;;;3.57;;
18166;SDS011;9208;42.688;23.404;2022-09-19T02:49:36;5.80;;;4.80;;
18166;SDS011;9208;42.688;23.404;2022-09-19T02:52:12;4.63;;;4.23;;
18166;SDS011;9208;42.688;23.404;2022-09-19T02:54:43;3.33;;;2.80;;
18166;SDS011;9208;42.688;23.404;2022-09-19T02:57:14;3.33;;;2.40;;
18166;SDS011;9208;42.688;23.404;2022-09-19T02:59:43;4.30;;;2.60;;
18166;SDS011;9208;42.688;23.404;2022-09-19T03:02:17;2.70;;;2.50;;
18166;SDS011;9208;42.688;23.404;2022-09-19T03:04:49;3.27;;;2.10;;
18166;SDS011;9208;42.688;23.404;2022-09-19T03:07:21;3.00;;;2.40;;
18166;SDS011;9208;42.688;23.404;2022-09-19T03:10:12;2.60;;;2.40;;
18166;SDS011;9208;42.688;23.404;2022-09-19T03:12:59;2.60;;;2.33;;
18166;SDS011;9208;42.688;23.404;2022-09-19T03:15:32;8.00;;;6.67;;
18166;SDS011;9208;42.688;23.404;2022-09-19T03:18:11;5.40;;;5.00;;
18166;SDS011;9208;42.688;23.404;2022-09-19T03:20:45;3.87;;;3.20;;
18166;SDS011;9208;42.688;23.404;2022-09-19T03:23:13;5.20;;;2.50;;
18166;SDS011;9208;42.688;23.404;2022-09-19T03:25:42;3.20;;;2.10;;
18166;SDS011;9208;42.688;23.404;2022-09-19T03:28:08;2.70;;;2.50;;
18166;SDS011;9208;42.688;23.404;2022-09-19T03:30:35;2.70;;;2.30;;
18166;SDS011;9208;42.688;23.404;2022-09-19T03:33:00;2.20;;;2.00;;
18166;SDS011;9208;42.688;23.404;2022-09-19T03:35:26;2.43;;;2.23;;
18166;SDS011;9208;42.688;23.404;2022-09-19T03:37:52;2.23;;;2.03;;
18166;SDS011;9208;42.688;23.404;2022-09-19T03:40:17;2.80;;;1.90;;
18166;SDS011;9208;42.688;23.404;2022-09-19T03:42:43;2.70;;;2.13;;
18166;SDS011;9208;42.688;23.404;2022-09-19T03:45:11;2.50;;;2.10;;
18166;SDS011;9208;42.688;23.404;2022-09-19T03:47:36;2.80;;;1.73;;
18166;SDS011;9208;42.688;23.404;2022-09-19T03:50:03;2.30;;;2.10;;
18166;SDS011;9208;42.688;23.404;2022-09-19T03:52:29;2.20;;;2.00;;
18166;SDS011;9208;42.688;23.404;2022-09-19T03:54:54;2.50;;;2.30;;
18166;SDS011;9208;42.688;23.404;2022-09-19T03:57:21;3.10;;;2.10;;
18166;SDS011;9208;42.688;23.404;2022-09-19T03:59:46;2.20;;;2.00;;
18166;SDS011;9208;42.688;23.404;2022-09-19T04:02:12;2.20;;;2.10;;
18166;SDS011;9208;42.688;23.404;2022-09-19T04:04:37;1.90;;;1.80;;
18166;SDS011;9208;42.688;23.404;2022-09-19T04:07:05;3.17;;;2.10;;
18166;SDS011;9208;42.688;23.404;2022-09-19T04:09:31;3.90;;;2.30;;
18166;SDS011;9208;42.688;23.404;2022-09-19T04:11:57;3.97;;;3.57;;
18166;SDS011;9208;42.688;23.404;2022-09-19T04:14:24;4.07;;;3.23;;
18166;SDS011;9208;42.688;23.404;2022-09-19T04:16:51;2.97;;;2.67;;
18166;SDS011;9208;42.688;23.404;2022-09-19T04:19:17;2.70;;;2.50;;
18166;SDS011;9208;42.688;23.404;2022-09-19T04:21:42;3.23;;;2.90;;
18166;SDS011;9208;42.688;23.404;2022-09-19T04:24:09;3.43;;;3.07;;
18166;SDS011;9208;42.688;23.404;2022-09-19T04:26:36;3.20;;;2.90;;
18166;SDS011;9208;42.688;23.404;2022-09-19T04:29:02;3.07;;;2.77;;
18166;SDS011;9208;42.688;23.404;2022-09-19T04:31:28;3.23;;;2.93;;
18166;SDS011;9208;42.688;23.404;2022-09-19T04:34:00;3.83;;;2.50;;
18166;SDS011;9208;42.688;23.404;2022-09-19T04:36:27;3.43;;;2.87;;
18166;SDS011;9208;42.688;23.404;2022-09-19T04:38:56;2.97;;;2.77;;
18166;SDS011;9208;42.688;23.404;2022-09-19T04:41:29;3.07;;;2.70;;
18166;SDS011;9208;42.688;23.404;2022-09-19T04:43:57;4.17;;;3.30;;
18166;SDS011;9208;42.688;23.404;2022-09-19T04:46:23;3.30;;;3.00;;
18166;SDS011;9208;42.688;23.404;2022-09-19T04:48:49;5.47;;;3.67;;
18166;SDS011;9208;42.688;23.404;2022-09-19T04:51:17;4.80;;;3.00;;
18166;SDS011;9208;42.688;23.404;2022-09-19T04:53:43;3.83;;;2.90;;
18166;SDS011;9208;42.688;23.404;2022-09-19T04:56:09;8.80;;;5.17;;
18166;SDS011;9208;42.688;23.404;2022-09-19T04:58:36;5.87;;;5.37;;
18166;SDS011;9208;42.688;23.404;2022-09-19T05:01:04;5.20;;;4.80;;
18166;SDS011;9208;42.688;23.404;2022-09-19T05:03:29;4.67;;;3.70;;
18166;SDS011;9208;42.688;23.404;2022-09-19T05:05:56;2.90;;;2.70;;
18166;SDS011;9208;42.688;23.404;2022-09-19T05:08:23;2.90;;;2.70;;
18166;SDS011;9208;42.688;23.404;2022-09-19T05:10:52;2.70;;;2.50;;
18166;SDS011;9208;42.688;23.404;2022-09-19T05:13:20;2.73;;;2.53;;
18166;SDS011;9208;42.688;23.404;2022-09-19T05:15:49;3.30;;;2.13;;
18166;SDS011;9208;42.688;23.404;2022-09-19T05:18:16;2.10;;;2.00;;
18166;SDS011;9208;42.688;23.404;2022-09-19T05:20:44;2.80;;;2.27;;
18166;SDS011;9208;42.688;23.404;2022-09-19T05:23:09;2.23;;;2.13;;
18166;SDS011;9208;42.688;23.404;2022-09-19T05:25:35;2.87;;;2.20;;
18166;SDS011;9208;42.688;23.404;2022-09-19T05:28:03;2.50;;;2.30;;
18166;SDS011;9208;42.688;23.404;2022-09-19T05:30:33;3.23;;;2.70;;
18166;SDS011;9208;42.688;23.404;2022-09-19T05:33:01;3.67;;;2.37;;
18166;SDS011;9208;42.688;23.404;2022-09-19T05:35:31;2.50;;;2.30;;
18166;SDS011;9208;42.688;23.404;2022-09-19T05:37:57;1.90;;;1.80;;
18166;SDS011;9208;42.688;23.404;2022-09-19T05:40:26;3.27;;;2.20;;
18166;SDS011;9208;42.688;23.404;2022-09-19T05:42:52;2.73;;;2.53;;
18166;SDS011;9208;42.688;23.404;2022-09-19T05:45:28;2.73;;;2.20;;
18166;SDS011;9208;42.688;23.404;2022-09-19T05:48:00;2.90;;;2.30;;
18166;SDS011;9208;42.688;23.404;2022-09-19T05:50:29;2.83;;;2.50;;
18166;SDS011;9208;42.688;23.404;2022-09-19T05:52:54;3.10;;;2.40;;
18166;SDS011;9208;42.688;23.404;2022-09-19T05:55:38;2.50;;;2.30;;
18166;SDS011;9208;42.688;23.404;2022-09-19T05:58:04;2.17;;;2.03;;
18166;SDS011;9208;42.688;23.404;2022-09-19T06:00:31;2.23;;;2.00;;
18166;SDS011;9208;42.688;23.404;2022-09-19T06:02:58;2.10;;;2.00;;
18166;SDS011;9208;42.688;23.404;2022-09-19T06:05:28;2.03;;;1.93;;
18166;SDS011;9208;42.688;23.404;2022-09-19T06:07:57;2.40;;;2.20;;
18166;SDS011;9208;42.688;23.404;2022-09-19T06:10:23;2.50;;;2.30;;
18166;SDS011;9208;42.688;23.404;2022-09-19T06:12:53;2.40;;;2.20;;
18166;SDS011;9208;42.688;23.404;2022-09-19T06:15:18;2.20;;;2.00;;
18166;SDS011;9208;42.688;23.404;2022-09-19T06:17:44;2.30;;;2.20;;
18166;SDS011;9208;42.688;23.404;2022-09-19T06:20:14;2.43;;;2.20;;
18166;SDS011;9208;42.688;23.404;2022-09-19T06:22:41;2.30;;;2.10;;
18166;SDS011;9208;42.688;23.404;2022-09-19T06:25:07;2.00;;;1.90;;
18166;SDS011;9208;42.688;23.404;2022-09-19T06:27:33;3.47;;;2.50;;
18166;SDS011;9208;42.688;23.404;2022-09-19T06:30:01;4.07;;;2.20;;
18166;SDS011;9208;42.688;23.404;2022-09-19T06:32:28;2.40;;;2.17;;
18166;SDS011;9208;42.688;23.404;2022-09-19T06:34:53;4.13;;;3.10;;
18166;SDS011;9208;42.688;23.404;2022-09-19T06:37:19;3.60;;;3.30;;
18166;SDS011;9208;42.688;23.404;2022-09-19T06:39:46;3.13;;;2.93;;
18166;SDS011;9208;42.688;23.404;2022-09-19T06:42:11;2.67;;;2.40;;
18166;SDS011;9208;42.688;23.404;2022-09-19T06:44:37;2.53;;;2.33;;
18166;SDS011;9208;42.688;23.404;2022-09-19T06:47:02;2.33;;;2.13;;
18166;SDS011;9208;42.688;23.404;2022-09-19T06:49:32;2.63;;;2.20;;
18166;SDS011;9208;42.688;23.404;2022-09-19T06:51:58;3.00;;;2.73;;
18166;SDS011;9208;42.688;23.404;2022-09-19T06:54:23;6.67;;;3.30;;
18166;SDS011;9208;42.688;23.404;2022-09-19T06:56:49;8.00;;;6.53;;
18166;SDS011;9208;42.688;23.404;2022-09-19T06:59:15;3.13;;;2.93;;
18166;SDS011;9208;42.688;23.404;2022-09-19T07:01:42;3.03;;;2.73;;
18166;SDS011;9208;42.688;23.404;2022-09-19T07:04:10;2.70;;;2.50;;
18166;SDS011;9208;42.688;23.404;2022-09-19T07:06:35;4.10;;;2.50;;
18166;SDS011;9208;42.688;23.404;2022-09-19T07:09:01;2.90;;;2.70;;
18166;SDS011;9208;42.688;23.404;2022-09-19T07:11:28;4.03;;;2.70;;
18166;SDS011;9208;42.688;23.404;2022-09-19T07:13:54;3.13;;;2.80;;
18166;SDS011;9208;42.688;23.404;2022-09-19T07:16:19;2.67;;;2.47;;
18166;SDS011;9208;42.688;23.404;2022-09-19T07:18:45;3.60;;;3.33;;
18166;SDS011;9208;42.688;23.404;2022-09-19T07:21:10;4.60;;;4.20;;
18166;SDS011;9208;42.688;23.404;2022-09-19T07:23:36;2.73;;;2.53;;
18166;SDS011;9208;42.688;23.404;2022-09-19T07:26:02;2.90;;;2.50;;
18166;SDS011;9208;42.688;23.404;2022-09-19T07:28:28;3.10;;;2.80;;
18166;SDS011;9208;42.688;23.404;2022-09-19T07:30:56;3.63;;;3.00;;
18166;SDS011;9208;42.688;23.404;2022-09-19T07:33:23;5.27;;;3.10;;
18166;SDS011;9208;42.688;23.404;2022-09-19T07:35:48;3.00;;;2.70;;
18166;SDS011;9208;42.688;23.404;2022-09-19T07:38:17;4.33;;;2.90;;
18166;SDS011;9208;42.688;23.404;2022-09-19T07:40:43;3.00;;;2.70;;
18166;SDS011;9208;42.688;23.404;2022-09-19T07:43:10;2.97;;;2.60;;
18166;SDS011;9208;42.688;23.404;2022-09-19T07:45:39;3.27;;;2.97;;
18166;SDS011;9208;42.688;23.404;2022-09-19T07:48:07;3.63;;;3.00;;
18166;SDS011;9208;42.688;23.404;2022-09-19T07:50:33;5.13;;;2.93;;
18166;SDS011;9208;42.688;23.404;2022-09-19T07:53:00;2.67;;;2.23;;
18166;SDS011;9208;42.688;23.404;2022-09-19T07:55:28;2.67;;;2.47;;
18166;SDS011;9208;42.688;23.404;2022-09-19T07:57:55;2.90;;;2.60;;
18166;SDS011;9208;42.688;23.404;2022-09-19T08:00:23;2.73;;;2.33;;
18166;SDS011;9208;42.688;23.404;2022-09-19T08:02:56;2.60;;;2.40;;
18166;SDS011;9208;42.688;23.404;2022-09-19T08:05:46;2.57;;;2.00;;
18166;SDS011;9208;42.688;23.404;2022-09-19T08:08:14;3.03;;;2.47;;
18166;SDS011;9208;42.688;23.404;2022-09-19T08:10:40;2.13;;;2.00;;
18166;SDS011;9208;42.688;23.404;2022-09-19T08:13:07;3.37;;;2.03;;
18166;SDS011;9208;42.688;23.404;2022-09-19T08:15:34;3.03;;;2.20;;
18166;SDS011;9208;42.688;23.404;2022-09-19T08:18:02;1.87;;;1.70;;
18166;SDS011;9208;42.688;23.404;2022-09-19T08:20:30;5.83;;;2.00;;
18166;SDS011;9208;42.688;23.404;2022-09-19T08:22:58;4.50;;;1.93;;
18166;SDS011;9208;42.688;23.404;2022-09-19T08:25:26;3.53;;;1.70;;
18166;SDS011;9208;42.688;23.404;2022-09-19T08:27:52;5.00;;;1.60;;
18166;SDS011;9208;42.688;23.404;2022-09-19T08:30:18;4.03;;;1.77;;
18166;SDS011;9208;42.688;23.404;2022-09-19T08:32:45;1.60;;;1.40;;
18166;SDS011;9208;42.688;23.404;2022-09-19T08:35:11;3.17;;;1.60;;
18166;SDS011;9208;42.688;23.404;2022-09-19T08:37:37;1.63;;;1.40;;
18166;SDS011;9208;42.688;23.404;2022-09-19T08:40:02;2.07;;;1.47;;
18166;SDS011;9208;42.688;23.404;2022-09-19T08:42:53;2.13;;;1.50;;
18166;SDS011;9208;42.688;23.404;2022-09-19T08:45:32;2.17;;;1.70;;
18166;SDS011;9208;42.688;23.404;2022-09-19T08:48:10;2.93;;;1.67;;
18166;SDS011;9208;42.688;23.404;2022-09-19T08:50:41;3.50;;;1.57;;
18166;SDS011;9208;42.688;23.404;2022-09-19T08:53:13;4.37;;;1.97;;
18166;SDS011;9208;42.688;23.404;2022-09-19T08:55:45;3.23;;;2.00;;
18166;SDS011;9208;42.688;23.404;2022-09-19T08:58:14;1.97;;;1.53;;
18166;SDS011;9208;42.688;23.404;2022-09-19T09:00:43;5.73;;;2.30;;
18166;SDS011;9208;42.688;23.404;2022-09-19T09:03:59;2.50;;;1.57;;
18166;SDS011;9208;42.688;23.404;2022-09-19T09:17:34;1.47;;;1.30;;
18166;SDS011;9208;42.688;23.404;2022-09-19T09:22:48;2.80;;;1.67;;
18166;SDS011;9208;42.688;23.404;2022-09-19T09:25:25;0.90;;;0.90;;
18166;SDS011;9208;42.688;23.404;2022-09-19T09:28:03;2.43;;;1.20;;
18166;SDS011;9208;42.688;23.404;2022-09-19T09:30:41;2.93;;;1.30;;
18166;SDS011;9208;42.688;23.404;2022-09-19T09:33:17;1.73;;;1.00;;
18166;SDS011;9208;42.688;23.404;2022-09-19T09:36:14;1.47;;;1.10;;
18166;SDS011;9208;42.688;23.404;2022-09-19T09:38:44;1.20;;;1.10;;
18166;SDS011;9208;42.688;23.404;2022-09-19T09:41:37;1.80;;;0.90;;
18166;SDS011;9208;42.688;23.404;2022-09-19T09:49:18;4.37;;;1.80;;
18166;SDS011;9208;42.688;23.404;2022-09-19T09:57:20;0.97;;;0.80;;
18166;SDS011;9208;42.688;23.404;2022-09-19T09:59:54;0.73;;;0.73;;
18166;SDS011;9208;42.688;23.404;2022-09-19T10:06:01;1.97;;;1.00;;
18166;SDS011;9208;42.688;23.404;2022-09-19T10:08:33;1.67;;;0.90;;
18166;SDS011;9208;42.688;23.404;2022-09-19T10:11:03;2.50;;;2.30;;
18166;SDS011;9208;42.688;23.404;2022-09-19T10:13:38;1.80;;;1.13;;
18166;SDS011;9208;42.688;23.404;2022-09-19T10:16:11;1.93;;;0.90;;
18166;SDS011;9208;42.688;23.404;2022-09-19T10:18:43;1.43;;;1.10;;
18166;SDS011;9208;42.688;23.404;2022-09-19T10:21:11;1.23;;;0.90;;
18166;SDS011;9208;42.688;23.404;2022-09-19T10:23:37;1.43;;;0.90;;
18166;SDS011;9208;42.688;23.404;2022-09-19T10:26:10;3.70;;;1.07;;
18166;SDS011;9208;42.688;23.404;2022-09-19T10:28:44;1.50;;;1.00;;
18166;SDS011;9208;42.688;23.404;2022-09-19T10:31:33;2.33;;;1.23;;
18166;SDS011;9208;42.688;23.404;2022-09-19T10:34:08;4.30;;;1.93;;
18166;SDS011;9208;42.688;23.404;2022-09-19T10:36:48;4.47;;;1.77;;
18166;SDS011;9208;42.688;23.404;2022-09-19T10:39:14;3.33;;;1.40;;
18166;SDS011;9208;42.688;23.404;2022-09-19T10:41:42;4.50;;;1.63;;
18166;SDS011;9208;42.688;23.404;2022-09-19T10:44:18;5.53;;;1.63;;
18166;SDS011;9208;42.688;23.404;2022-09-19T10:46:53;2.77;;;1.50;;
18166;SDS011;9208;42.688;23.404;2022-09-19T10:49:22;4.53;;;1.90;;
18166;SDS011;9208;42.688;23.404;2022-09-19T10:51:51;1.70;;;1.53;;
18166;SDS011;9208;42.688;23.404;2022-09-19T10:54:37;2.53;;;1.37;;
18166;SDS011;9208;42.688;23.404;2022-09-19T10:57:53;3.57;;;1.33;;
18166;SDS011;9208;42.688;23.404;2022-09-19T10:59:51;2.33;;;1.70;;
18166;SDS011;9208;42.688;23.404;2022-09-19T11:02:27;2.47;;;1.73;;
18166;SDS011;9208;42.688;23.404;2022-09-19T11:05:02;3.30;;;1.57;;
18166;SDS011;9208;42.688;23.404;2022-09-19T11:07:30;1.73;;;1.60;;
18166;SDS011;9208;42.688;23.404;2022-09-19T11:09:59;3.17;;;1.67;;
18166;SDS011;9208;42.688;23.404;2022-09-19T11:12:26;2.63;;;1.60;;
18166;SDS011;9208;42.688;23.404;2022-09-19T11:14:55;2.57;;;1.53;;
18166;SDS011;9208;42.688;23.404;2022-09-19T11:25:24;5.43;;;2.50;;
18166;SDS011;9208;42.688;23.404;2022-09-19T11:28:04;3.27;;;2.00;;
18166;SDS011;9208;42.688;23.404;2022-09-19T11:33:58;5.27;;;1.90;;
18166;SDS011;9208;42.688;23.404;2022-09-19T11:50:22;3.87;;;2.13;;
18166;SDS011;9208;42.688;23.404;2022-09-19T11:53:03;3.63;;;2.20;;
18166;SDS011;9208;42.688;23.404;2022-09-19T12:04:34;4.00;;;1.97;;
18166;SDS011;9208;42.688;23.404;2022-09-19T12:07:29;3.63;;;2.00;;
18166;SDS011;9208;42.688;23.404;2022-09-19T12:10:06;4.90;;;2.40;;
18166;SDS011;9208;42.688;23.404;2022-09-19T12:12:41;3.73;;;2.23;;
18166;SDS011;9208;42.688;23.404;2022-09-19T12:15:16;2.20;;;1.73;;
18166;SDS011;9208;42.688;23.404;2022-09-19T12:20:45;2.63;;;1.70;;
18166;SDS011;9208;42.688;23.404;2022-09-19T12:23:17;2.83;;;1.80;;
18166;SDS011;9208;42.688;23.404;2022-09-19T12:26:07;3.50;;;1.90;;
18166;SDS011;9208;42.688;23.404;2022-09-19T12:28:40;2.33;;;2.13;;
18166;SDS011;9208;42.688;23.404;2022-09-19T12:31:19;2.97;;;1.43;;
18166;SDS011;9208;42.688;23.404;2022-09-19T12:36:20;4.43;;;1.80;;
18166;SDS011;9208;42.688;23.404;2022-09-19T12:39:01;3.87;;;1.67;;
18166;SDS011;9208;42.688;23.404;2022-09-19T12:44:26;3.77;;;2.00;;
18166;SDS011;9208;42.688;23.404;2022-09-19T12:47:12;3.30;;;2.00;;
18166;SDS011;9208;42.688;23.404;2022-09-19T12:58:31;2.30;;;1.40;;
18166;SDS011;9208;42.688;23.404;2022-09-19T13:01:10;3.53;;;1.63;;
18166;SDS011;9208;42.688;23.404;2022-09-19T13:03:45;5.77;;;1.50;;
18166;SDS011;9208;42.688;23.404;2022-09-19T13:06:22;2.50;;;1.70;;
18166;SDS011;9208;42.688;23.404;2022-09-19T13:08:57;1.83;;;1.40;;
18166;SDS011;9208;42.688;23.404;2022-09-19T13:16:36;5.97;;;1.77;;
18166;SDS011;9208;42.688;23.404;2022-09-19T13:19:29;5.70;;;2.20;;
18166;SDS011;9208;42.688;23.404;2022-09-19T13:22:19;4.47;;;1.50;;
18166;SDS011;9208;42.688;23.404;2022-09-19T13:27:15;5.20;;;2.07;;
18166;SDS011;9208;42.688;23.404;2022-09-19T13:29:43;3.27;;;1.60;;
18166;SDS011;9208;42.688;23.404;2022-09-19T13:32:30;8.73;;;6.53;;
18166;SDS011;9208;42.688;23.404;2022-09-19T13:35:17;3.07;;;1.57;;
18166;SDS011;9208;42.688;23.404;2022-09-19T13:37:46;5.97;;;1.70;;
18166;SDS011;9208;42.688;23.404;2022-09-19T13:45:49;4.87;;;2.50;;
18166;SDS011;9208;42.688;23.404;2022-09-19T13:48:21;6.27;;;3.53;;
18166;SDS011;9208;42.688;23.404;2022-09-19T13:53:43;5.90;;;2.10;;
18166;SDS011;9208;42.688;23.404;2022-09-19T13:56:26;3.17;;;1.90;;
18166;SDS011;9208;42.688;23.404;2022-09-19T14:04:50;1.30;;;1.20;;
18166;SDS011;9208;42.688;23.404;2022-09-19T14:20:45;6.80;;;2.97;;
18166;SDS011;9208;42.688;23.404;2022-09-19T14:23:17;4.80;;;2.17;;
18166;SDS011;9208;42.688;23.404;2022-09-19T14:31:59;1.70;;;1.60;;
18166;SDS011;9208;42.688;23.404;2022-09-19T14:34:59;4.03;;;1.30;;
18166;SDS011;9208;42.688;23.404;2022-09-19T14:38:05;2.87;;;1.20;;
18166;SDS011;9208;42.688;23.404;2022-09-19T14:41:04;1.60;;;1.50;;
18166;SDS011;9208;42.688;23.404;2022-09-19T14:54:17;2.30;;;1.50;;
18166;SDS011;9208;42.688;23.404;2022-09-19T14:56:56;2.33;;;1.50;;
18166;SDS011;9208;42.688;23.404;2022-09-19T14:59:25;3.27;;;1.33;;
18166;SDS011;9208;42.688;23.404;2022-09-19T15:01:53;3.00;;;1.50;;
18166;SDS011;9208;42.688;23.404;2022-09-19T15:04:21;2.70;;;1.10;;
18166;SDS011;9208;42.688;23.404;2022-09-19T15:06:53;1.73;;;1.50;;
18166;SDS011;9208;42.688;23.404;2022-09-19T15:11:51;2.80;;;1.20;;
18166;SDS011;9208;42.688;23.404;2022-09-19T15:14:23;1.43;;;0.90;;
18166;SDS011;9208;42.688;23.404;2022-09-19T15:17:09;7.00;;;1.50;;
18166;SDS011;9208;42.688;23.404;2022-09-19T15:22:23;6.13;;;1.70;;
18166;SDS011;9208;42.688;23.404;2022-09-19T15:24:52;2.53;;;1.47;;
18166;SDS011;9208;42.688;23.404;2022-09-19T15:27:24;2.07;;;1.87;;
18166;SDS011;9208;42.688;23.404;2022-09-19T15:29:53;4.57;;;1.80;;
18166;SDS011;9208;42.688;23.404;2022-09-19T15:32:25;2.60;;;1.23;;
18166;SDS011;9208;42.688;23.404;2022-09-19T15:34:58;4.97;;;1.53;;
18166;SDS011;9208;42.688;23.404;2022-09-19T15:37:24;4.17;;;1.43;;
18166;SDS011;9208;42.688;23.404;2022-09-19T15:39:56;3.70;;;1.40;;
18166;SDS011;9208;42.688;23.404;2022-09-19T15:42:22;1.43;;;0.93;;
18166;SDS011;9208;42.688;23.404;2022-09-19T15:44:48;3.80;;;0.90;;
18166;SDS011;9208;42.688;23.404;2022-09-19T15:47:17;4.70;;;1.03;;
18166;SDS011;9208;42.688;23.404;2022-09-19T15:49:47;4.93;;;1.50;;
18166;SDS011;9208;42.688;23.404;2022-09-19T15:52:32;4.40;;;1.80;;
18166;SDS011;9208;42.688;23.404;2022-09-19T15:55:02;1.13;;;1.03;;
18166;SDS011;9208;42.688;23.404;2022-09-19T15:57:47;1.43;;;1.33;;
18166;SDS011;9208;42.688;23.404;2022-09-19T16:00:19;1.30;;;1.20;;
18166;SDS011;9208;42.688;23.404;2022-09-19T16:02:48;1.00;;;1.00;;
18166;SDS011;9208;42.688;23.404;2022-09-19T16:05:19;1.97;;;1.00;;
18166;SDS011;9208;42.688;23.404;2022-09-19T16:07:57;3.10;;;1.00;;
18166;SDS011;9208;42.688;23.404;2022-09-19T16:10:43;1.77;;;1.07;;
18166;SDS011;9208;42.688;23.404;2022-09-19T16:13:31;0.80;;;0.80;;
18166;SDS011;9208;42.688;23.404;2022-09-19T16:16:24;0.60;;;0.60;;
18166;SDS011;9208;42.688;23.404;2022-09-19T16:18:51;1.00;;;0.90;;
18166;SDS011;9208;42.688;23.404;2022-09-19T16:21:19;0.80;;;0.80;;
18166;SDS011;9208;42.688;23.404;2022-09-19T16:24:15;1.20;;;1.07;;
18166;SDS011;9208;42.688;23.404;2022-09-19T16:26:42;0.90;;;0.90;;
18166;SDS011;9208;42.688;23.404;2022-09-19T16:29:11;1.07;;;0.90;;
18166;SDS011;9208;42.688;23.404;2022-09-19T16:31:37;0.80;;;0.80;;
18166;SDS011;9208;42.688;23.404;2022-09-19T16:36:47;2.13;;;1.03;;
18166;SDS011;9208;42.688;23.404;2022-09-19T16:39:26;1.23;;;0.70;;
18166;SDS011;9208;42.688;23.404;2022-09-19T16:41:59;0.83;;;0.83;;
18166;SDS011;9208;42.688;23.404;2022-09-19T16:44:34;0.97;;;0.90;;
18166;SDS011;9208;42.688;23.404;2022-09-19T16:47:15;1.50;;;0.90;;
18166;SDS011;9208;42.688;23.404;2022-09-19T16:49:41;1.77;;;1.47;;
18166;SDS011;9208;42.688;23.404;2022-09-19T16:52:11;1.53;;;1.43;;
18166;SDS011;9208;42.688;23.404;2022-09-19T16:54:43;2.30;;;1.67;;
18166;SDS011;9208;42.688;23.404;2022-09-19T16:57:13;4.97;;;1.70;;
18166;SDS011;9208;42.688;23.404;2022-09-19T16:59:42;4.13;;;2.20;;
18166;SDS011;9208;42.688;23.404;2022-09-19T17:04:48;2.50;;;1.20;;
18166;SDS011;9208;42.688;23.404;2022-09-19T17:07:15;1.27;;;1.17;;
18166;SDS011;9208;42.688;23.404;2022-09-19T17:09:44;3.20;;;1.20;;
18166;SDS011;9208;42.688;23.404;2022-09-19T17:12:10;4.53;;;1.87;;
18166;SDS011;9208;42.688;23.404;2022-09-19T17:14:36;4.03;;;3.63;;
18166;SDS011;9208;42.688;23.404;2022-09-19T17:17:02;10.93;;;7.03;;
18166;SDS011;9208;42.688;23.404;2022-09-19T17:19:28;9.73;;;7.57;;
18166;SDS011;9208;42.688;23.404;2022-09-19T17:21:53;7.03;;;6.13;;
18166;SDS011;9208;42.688;23.404;2022-09-19T17:24:22;6.33;;;5.00;;
18166;SDS011;9208;42.688;23.404;2022-09-19T17:26:47;7.37;;;4.00;;
18166;SDS011;9208;42.688;23.404;2022-09-19T17:29:14;6.97;;;3.87;;
18166;SDS011;9208;42.688;23.404;2022-09-19T17:31:39;5.97;;;3.70;;
18166;SDS011;9208;42.688;23.404;2022-09-19T17:34:06;5.33;;;3.20;;
18166;SDS011;9208;42.688;23.404;2022-09-19T17:36:32;4.53;;;2.63;;
18166;SDS011;9208;42.688;23.404;2022-09-19T17:38:58;3.17;;;2.50;;
18166;SDS011;9208;42.688;23.404;2022-09-19T17:41:24;4.93;;;2.60;;
18166;SDS011;9208;42.688;23.404;2022-09-19T17:43:50;2.97;;;2.20;;
18166;SDS011;9208;42.688;23.404;2022-09-19T17:46:19;2.90;;;2.33;;
18166;SDS011;9208;42.688;23.404;2022-09-19T17:48:44;4.80;;;2.40;;
18166;SDS011;9208;42.688;23.404;2022-09-19T17:51:15;3.57;;;2.07;;
18166;SDS011;9208;42.688;23.404;2022-09-19T17:53:41;2.93;;;2.27;;
18166;SDS011;9208;42.688;23.404;2022-09-19T17:56:17;3.37;;;2.07;;
18166;SDS011;9208;42.688;23.404;2022-09-19T17:58:46;3.30;;;2.10;;
18166;SDS011;9208;42.688;23.404;2022-09-19T18:01:15;2.70;;;1.87;;
18166;SDS011;9208;42.688;23.404;2022-09-19T18:04:00;5.67;;;2.23;;
18166;SDS011;9208;42.688;23.404;2022-09-19T18:06:26;6.90;;;2.43;;
18166;SDS011;9208;42.688;23.404;2022-09-19T18:08:51;6.57;;;2.63;;
18166;SDS011;9208;42.688;23.404;2022-09-19T18:11:17;8.13;;;6.73;;
18166;SDS011;9208;42.688;23.404;2022-09-19T18:13:42;4.37;;;3.03;;